Pocono Lake Preserve, Pennsylvania
Current Conditions -  °F | °C
As of 2:53 PM on Sunday 25 Jan 2015 (Local Time) from KMPO Reporting Station
Clear Clear  
Wind Chill: 19°   Ceiling: Unl
Heat Index: 29°   Visibility: 10mi
Dew Point:   Wind: 12mph
Humidity: 43%   Direction: 330°NNW
Pressure: 29.73"   Gusts: NA
Location:  41.1°N, 75.48°W
Report Text: KMPO 251953Z AUTO 33010KT 10SM CLR M02/M13 A2973 RMK AO2 SLP089 T10171128
Loading
Personal Weather Stations






























Interactive Weather Map New forecast layout! Learn more

10-Day Weather Forecast

Advertisements
Track Severe Weather on mobile